sensor_id;sensor_type;location;lat;lon;timestamp;P1;durP1;ratioP1;P2;durP2;ratioP2
9115;SDS011;4593;53.652;10.168;2022-09-09T00:04:15;24.90;;;12.43;;
9115;SDS011;4593;53.652;10.168;2022-09-09T00:17:32;26.60;;;12.27;;
9115;SDS011;4593;53.652;10.168;2022-09-09T00:20:24;26.17;;;12.13;;
9115;SDS011;4593;53.652;10.168;2022-09-09T00:23:08;26.53;;;11.87;;
9115;SDS011;4593;53.652;10.168;2022-09-09T00:28:22;26.63;;;11.83;;
9115;SDS011;4593;53.652;10.168;2022-09-09T00:30:52;29.57;;;13.70;;
9115;SDS011;4593;53.652;10.168;2022-09-09T00:33:19;25.03;;;10.87;;
9115;SDS011;4593;53.652;10.168;2022-09-09T00:35:49;21.77;;;11.30;;
9115;SDS011;4593;53.652;10.168;2022-09-09T00:40:53;19.53;;;11.03;;
9115;SDS011;4593;53.652;10.168;2022-09-09T00:48:20;25.53;;;11.93;;
9115;SDS011;4593;53.652;10.168;2022-09-09T00:50:59;24.03;;;11.57;;
9115;SDS011;4593;53.652;10.168;2022-09-09T00:58:59;21.73;;;10.87;;
9115;SDS011;4593;53.652;10.168;2022-09-09T01:01:27;21.93;;;10.33;;
9115;SDS011;4593;53.652;10.168;2022-09-09T01:03:54;20.57;;;10.33;;
9115;SDS011;4593;53.652;10.168;2022-09-09T01:09:04;18.17;;;9.50;;
9115;SDS011;4593;53.652;10.168;2022-09-09T01:11:59;22.03;;;9.90;;
9115;SDS011;4593;53.652;10.168;2022-09-09T01:27:19;14.40;;;8.57;;
9115;SDS011;4593;53.652;10.168;2022-09-09T01:29:48;15.43;;;7.83;;
9115;SDS011;4593;53.652;10.168;2022-09-09T01:35:23;16.23;;;9.60;;
9115;SDS011;4593;53.652;10.168;2022-09-09T01:38:11;16.93;;;9.23;;
9115;SDS011;4593;53.652;10.168;2022-09-09T01:40:37;19.10;;;9.73;;
9115;SDS011;4593;53.652;10.168;2022-09-09T01:43:04;18.60;;;9.10;;
9115;SDS011;4593;53.652;10.168;2022-09-09T01:45:31;13.00;;;7.87;;
9115;SDS011;4593;53.652;10.168;2022-09-09T01:47:57;15.93;;;9.20;;
9115;SDS011;4593;53.652;10.168;2022-09-09T01:50:24;17.60;;;9.13;;
9115;SDS011;4593;53.652;10.168;2022-09-09T01:52:52;16.90;;;8.43;;
9115;SDS011;4593;53.652;10.168;2022-09-09T01:55:29;17.53;;;9.20;;
9115;SDS011;4593;53.652;10.168;2022-09-09T02:00:33;12.73;;;7.70;;
9115;SDS011;4593;53.652;10.168;2022-09-09T02:03:08;17.40;;;8.30;;
9115;SDS011;4593;53.652;10.168;2022-09-09T02:05:49;13.60;;;8.17;;
9115;SDS011;4593;53.652;10.168;2022-09-09T02:08:26;15.93;;;8.40;;
9115;SDS011;4593;53.652;10.168;2022-09-09T02:11:13;17.80;;;9.00;;
9115;SDS011;4593;53.652;10.168;2022-09-09T02:13:44;17.87;;;8.73;;
9115;SDS011;4593;53.652;10.168;2022-09-09T02:16:34;19.80;;;8.23;;
9115;SDS011;4593;53.652;10.168;2022-09-09T02:19:00;19.63;;;10.10;;
9115;SDS011;4593;53.652;10.168;2022-09-09T02:21:28;16.73;;;9.30;;
9115;SDS011;4593;53.652;10.168;2022-09-09T02:23:55;14.83;;;7.93;;
9115;SDS011;4593;53.652;10.168;2022-09-09T02:26:23;14.10;;;7.67;;
9115;SDS011;4593;53.652;10.168;2022-09-09T02:28:50;18.70;;;9.60;;
9115;SDS011;4593;53.652;10.168;2022-09-09T02:31:18;13.70;;;7.97;;
9115;SDS011;4593;53.652;10.168;2022-09-09T02:33:51;13.90;;;8.13;;
9115;SDS011;4593;53.652;10.168;2022-09-09T02:36:17;16.30;;;7.43;;
9115;SDS011;4593;53.652;10.168;2022-09-09T02:38:47;16.53;;;9.67;;
9115;SDS011;4593;53.652;10.168;2022-09-09T02:41:16;16.83;;;9.70;;
9115;SDS011;4593;53.652;10.168;2022-09-09T02:43:43;18.60;;;10.27;;
9115;SDS011;4593;53.652;10.168;2022-09-09T02:53:59;13.13;;;8.20;;
9115;SDS011;4593;53.652;10.168;2022-09-09T02:56:30;12.77;;;8.23;;
9115;SDS011;4593;53.652;10.168;2022-09-09T02:59:03;17.17;;;9.17;;
9115;SDS011;4593;53.652;10.168;2022-09-09T03:01:29;15.07;;;9.33;;
9115;SDS011;4593;53.652;10.168;2022-09-09T03:03:56;17.83;;;9.93;;
9115;SDS011;4593;53.652;10.168;2022-09-09T03:06:22;14.17;;;8.53;;
9115;SDS011;4593;53.652;10.168;2022-09-09T03:08:48;17.07;;;10.07;;
9115;SDS011;4593;53.652;10.168;2022-09-09T03:11:15;16.30;;;9.23;;
9115;SDS011;4593;53.652;10.168;2022-09-09T03:13:41;14.77;;;8.67;;
9115;SDS011;4593;53.652;10.168;2022-09-09T03:16:07;18.10;;;8.60;;
9115;SDS011;4593;53.652;10.168;2022-09-09T03:18:32;13.80;;;7.77;;
9115;SDS011;4593;53.652;10.168;2022-09-09T03:20:59;15.97;;;9.17;;
9115;SDS011;4593;53.652;10.168;2022-09-09T03:23:25;13.70;;;8.43;;
9115;SDS011;4593;53.652;10.168;2022-09-09T03:25:51;16.47;;;10.20;;
9115;SDS011;4593;53.652;10.168;2022-09-09T03:28:17;20.90;;;9.97;;
9115;SDS011;4593;53.652;10.168;2022-09-09T03:30:43;18.50;;;9.73;;
9115;SDS011;4593;53.652;10.168;2022-09-09T03:33:09;16.07;;;8.97;;
9115;SDS011;4593;53.652;10.168;2022-09-09T03:35:35;16.87;;;9.23;;
9115;SDS011;4593;53.652;10.168;2022-09-09T03:38:01;16.87;;;9.13;;
9115;SDS011;4593;53.652;10.168;2022-09-09T03:40:27;19.60;;;9.07;;
9115;SDS011;4593;53.652;10.168;2022-09-09T03:42:53;16.13;;;8.77;;
9115;SDS011;4593;53.652;10.168;2022-09-09T03:45:19;16.17;;;9.10;;
9115;SDS011;4593;53.652;10.168;2022-09-09T03:47:45;20.13;;;10.70;;
9115;SDS011;4593;53.652;10.168;2022-09-09T03:50:11;17.43;;;10.00;;
9115;SDS011;4593;53.652;10.168;2022-09-09T03:52:38;16.00;;;8.73;;
9115;SDS011;4593;53.652;10.168;2022-09-09T03:55:06;14.83;;;8.57;;
9115;SDS011;4593;53.652;10.168;2022-09-09T03:57:32;17.97;;;9.33;;
9115;SDS011;4593;53.652;10.168;2022-09-09T04:00:00;18.33;;;9.00;;
9115;SDS011;4593;53.652;10.168;2022-09-09T04:02:28;17.93;;;10.27;;
9115;SDS011;4593;53.652;10.168;2022-09-09T04:04:54;16.70;;;9.50;;
9115;SDS011;4593;53.652;10.168;2022-09-09T04:07:20;17.67;;;10.77;;
9115;SDS011;4593;53.652;10.168;2022-09-09T04:09:46;19.83;;;9.80;;
9115;SDS011;4593;53.652;10.168;2022-09-09T04:12:12;14.17;;;8.37;;
9115;SDS011;4593;53.652;10.168;2022-09-09T04:14:38;18.90;;;10.13;;
9115;SDS011;4593;53.652;10.168;2022-09-09T04:17:04;14.83;;;8.73;;
9115;SDS011;4593;53.652;10.168;2022-09-09T04:19:31;15.73;;;9.10;;
9115;SDS011;4593;53.652;10.168;2022-09-09T04:21:57;13.57;;;8.43;;
9115;SDS011;4593;53.652;10.168;2022-09-09T04:24:23;20.37;;;9.87;;
9115;SDS011;4593;53.652;10.168;2022-09-09T04:26:49;14.77;;;8.30;;
9115;SDS011;4593;53.652;10.168;2022-09-09T04:29:15;18.27;;;9.73;;
9115;SDS011;4593;53.652;10.168;2022-09-09T04:31:40;22.10;;;11.37;;
9115;SDS011;4593;53.652;10.168;2022-09-09T04:34:07;17.70;;;8.93;;
9115;SDS011;4593;53.652;10.168;2022-09-09T04:36:33;16.73;;;9.77;;
9115;SDS011;4593;53.652;10.168;2022-09-09T04:38:59;16.77;;;9.77;;
9115;SDS011;4593;53.652;10.168;2022-09-09T04:41:26;16.87;;;9.30;;
9115;SDS011;4593;53.652;10.168;2022-09-09T04:43:52;17.40;;;9.87;;
9115;SDS011;4593;53.652;10.168;2022-09-09T04:46:19;16.20;;;8.80;;
9115;SDS011;4593;53.652;10.168;2022-09-09T04:48:46;16.23;;;8.63;;
9115;SDS011;4593;53.652;10.168;2022-09-09T04:51:12;16.60;;;9.73;;
9115;SDS011;4593;53.652;10.168;2022-09-09T04:53:39;15.57;;;8.93;;
9115;SDS011;4593;53.652;10.168;2022-09-09T04:56:12;14.67;;;8.73;;
9115;SDS011;4593;53.652;10.168;2022-09-09T04:58:42;17.90;;;9.90;;
9115;SDS011;4593;53.652;10.168;2022-09-09T05:01:18;16.37;;;9.33;;
9115;SDS011;4593;53.652;10.168;2022-09-09T05:03:46;15.10;;;9.57;;
9115;SDS011;4593;53.652;10.168;2022-09-09T05:06:13;15.63;;;8.53;;
9115;SDS011;4593;53.652;10.168;2022-09-09T05:08:41;20.90;;;9.10;;
9115;SDS011;4593;53.652;10.168;2022-09-09T05:11:14;14.93;;;8.43;;
9115;SDS011;4593;53.652;10.168;2022-09-09T05:13:41;15.23;;;9.07;;
9115;SDS011;4593;53.652;10.168;2022-09-09T05:16:07;14.03;;;7.57;;
9115;SDS011;4593;53.652;10.168;2022-09-09T05:18:36;14.60;;;8.80;;
9115;SDS011;4593;53.652;10.168;2022-09-09T05:21:02;14.93;;;9.20;;
9115;SDS011;4593;53.652;10.168;2022-09-09T05:23:28;16.97;;;9.57;;
9115;SDS011;4593;53.652;10.168;2022-09-09T05:25:55;18.00;;;10.20;;
9115;SDS011;4593;53.652;10.168;2022-09-09T05:28:21;19.10;;;9.93;;
9115;SDS011;4593;53.652;10.168;2022-09-09T05:30:54;20.63;;;10.30;;
9115;SDS011;4593;53.652;10.168;2022-09-09T05:33:20;14.23;;;8.77;;
9115;SDS011;4593;53.652;10.168;2022-09-09T05:35:46;16.53;;;8.67;;
9115;SDS011;4593;53.652;10.168;2022-09-09T05:38:13;15.00;;;9.27;;
9115;SDS011;4593;53.652;10.168;2022-09-09T05:40:46;16.73;;;8.67;;
9115;SDS011;4593;53.652;10.168;2022-09-09T05:43:13;15.17;;;8.60;;
9115;SDS011;4593;53.652;10.168;2022-09-09T05:45:39;14.40;;;8.20;;
9115;SDS011;4593;53.652;10.168;2022-09-09T05:48:04;10.93;;;7.33;;
9115;SDS011;4593;53.652;10.168;2022-09-09T05:50:30;12.63;;;7.57;;
9115;SDS011;4593;53.652;10.168;2022-09-09T05:52:56;14.20;;;7.57;;
9115;SDS011;4593;53.652;10.168;2022-09-09T05:55:22;12.77;;;8.60;;
9115;SDS011;4593;53.652;10.168;2022-09-09T05:57:50;11.63;;;7.93;;
9115;SDS011;4593;53.652;10.168;2022-09-09T06:00:17;11.17;;;7.27;;
9115;SDS011;4593;53.652;10.168;2022-09-09T06:02:43;13.73;;;7.97;;
9115;SDS011;4593;53.652;10.168;2022-09-09T06:05:08;9.80;;;6.37;;
9115;SDS011;4593;53.652;10.168;2022-09-09T06:07:35;9.37;;;6.17;;
9115;SDS011;4593;53.652;10.168;2022-09-09T06:10:02;9.43;;;6.90;;
9115;SDS011;4593;53.652;10.168;2022-09-09T06:12:28;10.03;;;6.87;;
9115;SDS011;4593;53.652;10.168;2022-09-09T06:14:53;11.00;;;7.07;;
9115;SDS011;4593;53.652;10.168;2022-09-09T06:17:19;9.80;;;6.40;;
9115;SDS011;4593;53.652;10.168;2022-09-09T06:19:45;8.13;;;5.27;;
9115;SDS011;4593;53.652;10.168;2022-09-09T06:22:11;10.93;;;6.07;;
9115;SDS011;4593;53.652;10.168;2022-09-09T06:24:37;12.67;;;6.27;;
9115;SDS011;4593;53.652;10.168;2022-09-09T06:27:03;7.40;;;5.53;;
9115;SDS011;4593;53.652;10.168;2022-09-09T06:29:30;9.47;;;5.37;;
9115;SDS011;4593;53.652;10.168;2022-09-09T06:31:55;9.50;;;5.73;;
9115;SDS011;4593;53.652;10.168;2022-09-09T06:34:23;7.23;;;5.23;;
9115;SDS011;4593;53.652;10.168;2022-09-09T06:36:49;9.20;;;6.13;;
9115;SDS011;4593;53.652;10.168;2022-09-09T06:39:16;10.97;;;5.90;;
9115;SDS011;4593;53.652;10.168;2022-09-09T06:41:42;8.13;;;4.30;;
9115;SDS011;4593;53.652;10.168;2022-09-09T06:44:08;8.37;;;5.93;;
9115;SDS011;4593;53.652;10.168;2022-09-09T06:46:36;5.70;;;4.70;;
9115;SDS011;4593;53.652;10.168;2022-09-09T06:49:02;6.37;;;5.17;;
9115;SDS011;4593;53.652;10.168;2022-09-09T06:51:37;10.50;;;5.03;;
9115;SDS011;4593;53.652;10.168;2022-09-09T06:54:07;4.87;;;4.23;;
9115;SDS011;4593;53.652;10.168;2022-09-09T06:56:38;5.53;;;4.57;;
9115;SDS011;4593;53.652;10.168;2022-09-09T06:59:07;6.33;;;4.97;;
9115;SDS011;4593;53.652;10.168;2022-09-09T07:01:34;7.40;;;4.83;;
9115;SDS011;4593;53.652;10.168;2022-09-09T07:04:01;7.40;;;4.97;;
9115;SDS011;4593;53.652;10.168;2022-09-09T07:06:30;7.43;;;4.70;;
9115;SDS011;4593;53.652;10.168;2022-09-09T07:08:57;5.83;;;4.10;;
9115;SDS011;4593;53.652;10.168;2022-09-09T07:11:28;6.07;;;4.67;;
9115;SDS011;4593;53.652;10.168;2022-09-09T07:13:54;5.50;;;4.30;;
9115;SDS011;4593;53.652;10.168;2022-09-09T07:16:22;4.10;;;3.70;;
9115;SDS011;4593;53.652;10.168;2022-09-09T07:18:49;8.70;;;4.10;;
9115;SDS011;4593;53.652;10.168;2022-09-09T07:21:16;5.63;;;4.40;;
9115;SDS011;4593;53.652;10.168;2022-09-09T07:23:42;6.23;;;4.13;;
9115;SDS011;4593;53.652;10.168;2022-09-09T07:26:18;6.70;;;4.10;;
9115;SDS011;4593;53.652;10.168;2022-09-09T07:28:45;4.70;;;3.57;;
9115;SDS011;4593;53.652;10.168;2022-09-09T07:31:15;5.20;;;4.10;;
9115;SDS011;4593;53.652;10.168;2022-09-09T07:33:42;6.50;;;3.80;;
9115;SDS011;4593;53.652;10.168;2022-09-09T07:38:42;6.13;;;3.80;;
9115;SDS011;4593;53.652;10.168;2022-09-09T07:41:14;4.07;;;3.50;;
9115;SDS011;4593;53.652;10.168;2022-09-09T07:43:42;6.70;;;4.40;;
9115;SDS011;4593;53.652;10.168;2022-09-09T07:46:10;6.50;;;4.40;;
9115;SDS011;4593;53.652;10.168;2022-09-09T07:48:37;7.63;;;4.27;;
9115;SDS011;4593;53.652;10.168;2022-09-09T07:51:07;7.53;;;4.10;;
9115;SDS011;4593;53.652;10.168;2022-09-09T07:53:36;13.03;;;5.10;;
9115;SDS011;4593;53.652;10.168;2022-09-09T07:56:07;6.70;;;4.40;;
9115;SDS011;4593;53.652;10.168;2022-09-09T07:58:34;7.97;;;3.93;;
9115;SDS011;4593;53.652;10.168;2022-09-09T08:01:11;9.43;;;4.90;;
9115;SDS011;4593;53.652;10.168;2022-09-09T08:03:38;5.20;;;3.83;;
9115;SDS011;4593;53.652;10.168;2022-09-09T08:06:04;6.03;;;4.20;;
9115;SDS011;4593;53.652;10.168;2022-09-09T08:08:33;5.37;;;3.60;;
9115;SDS011;4593;53.652;10.168;2022-09-09T08:11:03;5.47;;;3.77;;
9115;SDS011;4593;53.652;10.168;2022-09-09T08:13:34;5.73;;;3.50;;
9115;SDS011;4593;53.652;10.168;2022-09-09T08:16:09;7.97;;;3.30;;
9115;SDS011;4593;53.652;10.168;2022-09-09T08:18:36;4.63;;;3.87;;
9115;SDS011;4593;53.652;10.168;2022-09-09T08:21:09;5.17;;;3.67;;
9115;SDS011;4593;53.652;10.168;2022-09-09T08:23:40;3.23;;;2.93;;
9115;SDS011;4593;53.652;10.168;2022-09-09T08:26:13;3.70;;;3.10;;
9115;SDS011;4593;53.652;10.168;2022-09-09T08:28:47;3.70;;;3.23;;
9115;SDS011;4593;53.652;10.168;2022-09-09T08:31:37;3.23;;;2.93;;
9115;SDS011;4593;53.652;10.168;2022-09-09T08:34:02;4.83;;;2.93;;
9115;SDS011;4593;53.652;10.168;2022-09-09T08:36:30;4.30;;;3.20;;
9115;SDS011;4593;53.652;10.168;2022-09-09T08:38:58;4.40;;;2.70;;
9115;SDS011;4593;53.652;10.168;2022-09-09T08:41:34;2.97;;;2.77;;
9115;SDS011;4593;53.652;10.168;2022-09-09T08:52:19;5.10;;;2.87;;
9115;SDS011;4593;53.652;10.168;2022-09-09T08:54:47;5.00;;;3.63;;
9115;SDS011;4593;53.652;10.168;2022-09-09T08:57:23;3.50;;;3.10;;
9115;SDS011;4593;53.652;10.168;2022-09-09T08:59:52;3.47;;;2.80;;
9115;SDS011;4593;53.652;10.168;2022-09-09T09:02:25;3.57;;;3.07;;
9115;SDS011;4593;53.652;10.168;2022-09-09T09:12:29;3.63;;;2.60;;
9115;SDS011;4593;53.652;10.168;2022-09-09T09:14:55;3.80;;;2.90;;
9115;SDS011;4593;53.652;10.168;2022-09-09T09:17:23;3.60;;;2.30;;
9115;SDS011;4593;53.652;10.168;2022-09-09T09:19:50;5.87;;;2.67;;
9115;SDS011;4593;53.652;10.168;2022-09-09T09:22:18;4.83;;;2.37;;
9115;SDS011;4593;53.652;10.168;2022-09-09T09:27:34;4.07;;;2.30;;
9115;SDS011;4593;53.652;10.168;2022-09-09T09:30:01;3.37;;;2.33;;
9115;SDS011;4593;53.652;10.168;2022-09-09T09:32:28;4.47;;;2.90;;
9115;SDS011;4593;53.652;10.168;2022-09-09T09:34:58;4.73;;;2.80;;
9115;SDS011;4593;53.652;10.168;2022-09-09T09:37:34;3.77;;;2.40;;
9115;SDS011;4593;53.652;10.168;2022-09-09T09:40:07;2.70;;;2.00;;
9115;SDS011;4593;53.652;10.168;2022-09-09T09:42:34;2.87;;;2.50;;
9115;SDS011;4593;53.652;10.168;2022-09-09T09:45:16;5.03;;;2.80;;
9115;SDS011;4593;53.652;10.168;2022-09-09T09:47:46;2.53;;;2.33;;
9115;SDS011;4593;53.652;10.168;2022-09-09T09:50:16;2.97;;;2.60;;
9115;SDS011;4593;53.652;10.168;2022-09-09T09:52:51;5.40;;;2.93;;
9115;SDS011;4593;53.652;10.168;2022-09-09T09:55:23;5.90;;;2.63;;
9115;SDS011;4593;53.652;10.168;2022-09-09T09:57:49;5.57;;;2.40;;
9115;SDS011;4593;53.652;10.168;2022-09-09T10:00:19;2.87;;;2.10;;
9115;SDS011;4593;53.652;10.168;2022-09-09T10:02:48;2.57;;;2.13;;
9115;SDS011;4593;53.652;10.168;2022-09-09T10:07:43;3.10;;;2.00;;
9115;SDS011;4593;53.652;10.168;2022-09-09T10:10:12;2.10;;;1.90;;
9115;SDS011;4593;53.652;10.168;2022-09-09T10:20:45;2.27;;;1.73;;
9115;SDS011;4593;53.652;10.168;2022-09-09T10:30:53;2.30;;;2.07;;
9115;SDS011;4593;53.652;10.168;2022-09-09T10:36:13;2.83;;;1.87;;
9115;SDS011;4593;53.652;10.168;2022-09-09T10:38:47;2.17;;;1.70;;
9115;SDS011;4593;53.652;10.168;2022-09-09T10:41:18;1.70;;;1.60;;
9115;SDS011;4593;53.652;10.168;2022-09-09T10:50:11;3.53;;;1.63;;
9115;SDS011;4593;53.652;10.168;2022-09-09T10:55:35;3.00;;;1.63;;
9115;SDS011;4593;53.652;10.168;2022-09-09T10:58:09;1.63;;;1.53;;
9115;SDS011;4593;53.652;10.168;2022-09-09T11:00:43;2.70;;;1.50;;
9115;SDS011;4593;53.652;10.168;2022-09-09T11:03:22;1.57;;;1.33;;
9115;SDS011;4593;53.652;10.168;2022-09-09T11:05:51;1.37;;;1.33;;
9115;SDS011;4593;53.652;10.168;2022-09-09T11:08:23;3.87;;;1.40;;
9115;SDS011;4593;53.652;10.168;2022-09-09T11:11:10;2.33;;;1.70;;
9115;SDS011;4593;53.652;10.168;2022-09-09T11:19:04;1.63;;;1.53;;
9115;SDS011;4593;53.652;10.168;2022-09-09T11:21:37;1.93;;;1.60;;
9115;SDS011;4593;53.652;10.168;2022-09-09T11:24:08;1.50;;;1.40;;
9115;SDS011;4593;53.652;10.168;2022-09-09T11:26:41;3.73;;;1.80;;
9115;SDS011;4593;53.652;10.168;2022-09-09T11:39:49;3.47;;;1.70;;
9115;SDS011;4593;53.652;10.168;2022-09-09T11:42:39;2.10;;;1.90;;
9115;SDS011;4593;53.652;10.168;2022-09-09T11:45:10;4.33;;;1.50;;
9115;SDS011;4593;53.652;10.168;2022-09-09T11:47:51;1.67;;;1.57;;
9115;SDS011;4593;53.652;10.168;2022-09-09T11:52:44;2.70;;;1.80;;
9115;SDS011;4593;53.652;10.168;2022-09-09T11:55:34;1.83;;;1.73;;
9115;SDS011;4593;53.652;10.168;2022-09-09T11:58:02;1.97;;;1.70;;
9115;SDS011;4593;53.652;10.168;2022-09-09T12:03:05;2.33;;;1.70;;
9115;SDS011;4593;53.652;10.168;2022-09-09T12:05:41;2.30;;;1.67;;
9115;SDS011;4593;53.652;10.168;2022-09-09T12:08:11;1.90;;;1.80;;
9115;SDS011;4593;53.652;10.168;2022-09-09T12:10:52;6.83;;;1.70;;
9115;SDS011;4593;53.652;10.168;2022-09-09T12:13:19;2.37;;;2.13;;
9115;SDS011;4593;53.652;10.168;2022-09-09T12:15:48;4.07;;;1.57;;
9115;SDS011;4593;53.652;10.168;2022-09-09T12:18:21;1.67;;;1.57;;
9115;SDS011;4593;53.652;10.168;2022-09-09T12:20:57;3.37;;;1.87;;
9115;SDS011;4593;53.652;10.168;2022-09-09T12:23:30;1.63;;;1.43;;
9115;SDS011;4593;53.652;10.168;2022-09-09T12:26:03;1.83;;;1.60;;
9115;SDS011;4593;53.652;10.168;2022-09-09T12:31:42;1.80;;;1.70;;
9115;SDS011;4593;53.652;10.168;2022-09-09T12:34:38;2.40;;;1.60;;
9115;SDS011;4593;53.652;10.168;2022-09-09T12:37:13;3.57;;;1.80;;
9115;SDS011;4593;53.652;10.168;2022-09-09T12:39:45;4.53;;;1.77;;
9115;SDS011;4593;53.652;10.168;2022-09-09T12:42:22;1.80;;;1.70;;
9115;SDS011;4593;53.652;10.168;2022-09-09T12:47:22;3.23;;;1.73;;
9115;SDS011;4593;53.652;10.168;2022-09-09T12:49:50;3.40;;;2.00;;
9115;SDS011;4593;53.652;10.168;2022-09-09T12:54:45;3.57;;;1.70;;
9115;SDS011;4593;53.652;10.168;2022-09-09T12:57:12;2.13;;;1.83;;
9115;SDS011;4593;53.652;10.168;2022-09-09T12:59:40;6.37;;;2.10;;
9115;SDS011;4593;53.652;10.168;2022-09-09T13:02:18;2.10;;;1.90;;
9115;SDS011;4593;53.652;10.168;2022-09-09T13:04:48;2.90;;;1.93;;
9115;SDS011;4593;53.652;10.168;2022-09-09T13:07:15;2.43;;;1.90;;
9115;SDS011;4593;53.652;10.168;2022-09-09T13:09:42;2.13;;;1.97;;
9115;SDS011;4593;53.652;10.168;2022-09-09T13:12:16;2.10;;;1.83;;
9115;SDS011;4593;53.652;10.168;2022-09-09T13:14:44;4.67;;;1.93;;
9115;SDS011;4593;53.652;10.168;2022-09-09T13:17:18;2.27;;;2.13;;
9115;SDS011;4593;53.652;10.168;2022-09-09T13:19:49;1.83;;;1.73;;
9115;SDS011;4593;53.652;10.168;2022-09-09T13:22:31;5.60;;;1.83;;
9115;SDS011;4593;53.652;10.168;2022-09-09T13:25:02;2.33;;;1.87;;
9115;SDS011;4593;53.652;10.168;2022-09-09T13:27:31;4.13;;;2.07;;
9115;SDS011;4593;53.652;10.168;2022-09-09T13:29:59;4.30;;;1.70;;
9115;SDS011;4593;53.652;10.168;2022-09-09T13:32:26;2.50;;;1.80;;
9115;SDS011;4593;53.652;10.168;2022-09-09T13:34:53;2.27;;;1.70;;
9115;SDS011;4593;53.652;10.168;2022-09-09T13:39:53;3.63;;;1.80;;
9115;SDS011;4593;53.652;10.168;2022-09-09T13:42:21;7.77;;;2.00;;
9115;SDS011;4593;53.652;10.168;2022-09-09T13:44:50;4.90;;;2.63;;
9115;SDS011;4593;53.652;10.168;2022-09-09T13:47:20;3.47;;;1.80;;
9115;SDS011;4593;53.652;10.168;2022-09-09T13:49:56;2.10;;;1.90;;
9115;SDS011;4593;53.652;10.168;2022-09-09T13:52:22;2.93;;;2.10;;
9115;SDS011;4593;53.652;10.168;2022-09-09T13:54:49;2.13;;;1.90;;
9115;SDS011;4593;53.652;10.168;2022-09-09T13:57:20;3.50;;;2.10;;
9115;SDS011;4593;53.652;10.168;2022-09-09T13:59:47;2.10;;;1.70;;
9115;SDS011;4593;53.652;10.168;2022-09-09T14:02:14;1.90;;;1.80;;
9115;SDS011;4593;53.652;10.168;2022-09-09T14:04:41;2.43;;;2.17;;
9115;SDS011;4593;53.652;10.168;2022-09-09T14:07:11;3.03;;;2.30;;
9115;SDS011;4593;53.652;10.168;2022-09-09T14:09:39;5.33;;;2.90;;
9115;SDS011;4593;53.652;10.168;2022-09-09T14:12:08;2.87;;;2.50;;
9115;SDS011;4593;53.652;10.168;2022-09-09T14:14:35;3.67;;;2.40;;
9115;SDS011;4593;53.652;10.168;2022-09-09T14:17:01;7.80;;;2.40;;
9115;SDS011;4593;53.652;10.168;2022-09-09T14:19:29;2.50;;;2.30;;
9115;SDS011;4593;53.652;10.168;2022-09-09T14:21:56;2.77;;;2.30;;
9115;SDS011;4593;53.652;10.168;2022-09-09T14:24:22;3.77;;;2.60;;
9115;SDS011;4593;53.652;10.168;2022-09-09T14:26:48;3.37;;;2.37;;
9115;SDS011;4593;53.652;10.168;2022-09-09T14:29:14;2.77;;;2.37;;
9115;SDS011;4593;53.652;10.168;2022-09-09T14:31:39;4.50;;;2.27;;
9115;SDS011;4593;53.652;10.168;2022-09-09T14:34:05;2.70;;;2.50;;
9115;SDS011;4593;53.652;10.168;2022-09-09T14:36:32;4.37;;;2.47;;
9115;SDS011;4593;53.652;10.168;2022-09-09T14:38:59;6.57;;;2.13;;
9115;SDS011;4593;53.652;10.168;2022-09-09T14:41:25;3.70;;;2.73;;
9115;SDS011;4593;53.652;10.168;2022-09-09T14:43:51;2.83;;;2.57;;
9115;SDS011;4593;53.652;10.168;2022-09-09T14:46:19;4.40;;;2.60;;
9115;SDS011;4593;53.652;10.168;2022-09-09T14:48:45;4.90;;;2.60;;
9115;SDS011;4593;53.652;10.168;2022-09-09T14:51:23;5.90;;;2.50;;
9115;SDS011;4593;53.652;10.168;2022-09-09T14:53:53;4.27;;;2.67;;
9115;SDS011;4593;53.652;10.168;2022-09-09T14:56:21;2.77;;;2.50;;
9115;SDS011;4593;53.652;10.168;2022-09-09T14:58:49;4.27;;;2.80;;
9115;SDS011;4593;53.652;10.168;2022-09-09T15:01:16;3.33;;;2.40;;
9115;SDS011;4593;53.652;10.168;2022-09-09T15:03:44;3.30;;;2.70;;
9115;SDS011;4593;53.652;10.168;2022-09-09T15:06:17;2.80;;;2.60;;
9115;SDS011;4593;53.652;10.168;2022-09-09T15:08:44;2.43;;;2.23;;
9115;SDS011;4593;53.652;10.168;2022-09-09T15:11:11;2.83;;;2.20;;
9115;SDS011;4593;53.652;10.168;2022-09-09T15:13:38;4.83;;;2.30;;
9115;SDS011;4593;53.652;10.168;2022-09-09T15:16:09;3.57;;;2.60;;
9115;SDS011;4593;53.652;10.168;2022-09-09T15:18:39;3.60;;;2.60;;
9115;SDS011;4593;53.652;10.168;2022-09-09T15:21:07;5.73;;;2.40;;
9115;SDS011;4593;53.652;10.168;2022-09-09T15:23:35;3.70;;;2.30;;
9115;SDS011;4593;53.652;10.168;2022-09-09T15:26:01;4.03;;;2.20;;
9115;SDS011;4593;53.652;10.168;2022-09-09T15:28:27;2.33;;;2.00;;
9115;SDS011;4593;53.652;10.168;2022-09-09T15:30:54;2.10;;;1.90;;
9115;SDS011;4593;53.652;10.168;2022-09-09T15:33:21;3.97;;;2.00;;
9115;SDS011;4593;53.652;10.168;2022-09-09T15:35:47;3.43;;;2.30;;
9115;SDS011;4593;53.652;10.168;2022-09-09T15:38:14;3.07;;;1.90;;
9115;SDS011;4593;53.652;10.168;2022-09-09T15:40:41;1.93;;;1.83;;
9115;SDS011;4593;53.652;10.168;2022-09-09T15:43:08;1.90;;;1.80;;
9115;SDS011;4593;53.652;10.168;2022-09-09T15:45:38;2.30;;;2.10;;
9115;SDS011;4593;53.652;10.168;2022-09-09T15:48:04;3.47;;;1.90;;
9115;SDS011;4593;53.652;10.168;2022-09-09T15:50:29;1.70;;;1.60;;
9115;SDS011;4593;53.652;10.168;2022-09-09T15:52:57;2.63;;;1.90;;
9115;SDS011;4593;53.652;10.168;2022-09-09T15:55:23;2.33;;;2.00;;
9115;SDS011;4593;53.652;10.168;2022-09-09T15:57:50;2.50;;;1.83;;
9115;SDS011;4593;53.652;10.168;2022-09-09T16:00:17;2.60;;;2.00;;
9115;SDS011;4593;53.652;10.168;2022-09-09T16:02:44;2.23;;;2.03;;
9115;SDS011;4593;53.652;10.168;2022-09-09T16:05:10;6.80;;;2.10;;
9115;SDS011;4593;53.652;10.168;2022-09-09T16:07:36;1.90;;;1.80;;
9115;SDS011;4593;53.652;10.168;2022-09-09T16:10:02;2.40;;;2.13;;
9115;SDS011;4593;53.652;10.168;2022-09-09T16:12:28;3.07;;;2.23;;
9115;SDS011;4593;53.652;10.168;2022-09-09T16:14:54;2.53;;;2.27;;
9115;SDS011;4593;53.652;10.168;2022-09-09T16:17:21;3.80;;;2.17;;
9115;SDS011;4593;53.652;10.168;2022-09-09T16:19:47;2.73;;;1.90;;
9115;SDS011;4593;53.652;10.168;2022-09-09T16:22:13;4.20;;;2.20;;
9115;SDS011;4593;53.652;10.168;2022-09-09T16:24:40;3.93;;;2.37;;
9115;SDS011;4593;53.652;10.168;2022-09-09T16:27:06;5.93;;;2.30;;
9115;SDS011;4593;53.652;10.168;2022-09-09T16:29:32;4.33;;;2.57;;
9115;SDS011;4593;53.652;10.168;2022-09-09T16:31:59;4.70;;;2.10;;
9115;SDS011;4593;53.652;10.168;2022-09-09T16:34:25;2.87;;;2.07;;
9115;SDS011;4593;53.652;10.168;2022-09-09T16:36:51;3.53;;;2.30;;
9115;SDS011;4593;53.652;10.168;2022-09-09T16:39:18;2.73;;;2.03;;
9115;SDS011;4593;53.652;10.168;2022-09-09T16:41:45;2.90;;;2.07;;
9115;SDS011;4593;53.652;10.168;2022-09-09T16:44:13;1.77;;;1.67;;
9115;SDS011;4593;53.652;10.168;2022-09-09T16:46:41;2.83;;;2.00;;
9115;SDS011;4593;53.652;10.168;2022-09-09T16:49:08;2.30;;;1.97;;
9115;SDS011;4593;53.652;10.168;2022-09-09T16:51:35;2.20;;;1.97;;
9115;SDS011;4593;53.652;10.168;2022-09-09T16:54:03;5.10;;;2.20;;
9115;SDS011;4593;53.652;10.168;2022-09-09T16:56:31;6.10;;;1.90;;
9115;SDS011;4593;53.652;10.168;2022-09-09T16:59:03;2.10;;;1.90;;
9115;SDS011;4593;53.652;10.168;2022-09-09T17:01:30;4.93;;;2.03;;
9115;SDS011;4593;53.652;10.168;2022-09-09T17:04:01;2.00;;;1.90;;
9115;SDS011;4593;53.652;10.168;2022-09-09T17:06:28;2.47;;;2.00;;
9115;SDS011;4593;53.652;10.168;2022-09-09T17:08:55;1.90;;;1.80;;
9115;SDS011;4593;53.652;10.168;2022-09-09T17:11:22;2.70;;;1.97;;
9115;SDS011;4593;53.652;10.168;2022-09-09T17:13:48;2.30;;;1.90;;
9115;SDS011;4593;53.652;10.168;2022-09-09T17:16:16;2.30;;;2.10;;
9115;SDS011;4593;53.652;10.168;2022-09-09T17:18:42;1.80;;;1.70;;
9115;SDS011;4593;53.652;10.168;2022-09-09T17:21:09;1.70;;;1.60;;
9115;SDS011;4593;53.652;10.168;2022-09-09T17:23:39;1.90;;;1.80;;
9115;SDS011;4593;53.652;10.168;2022-09-09T17:26:06;2.70;;;2.00;;
9115;SDS011;4593;53.652;10.168;2022-09-09T17:28:36;2.67;;;1.90;;